createdAt,value
2017-11-27T00:00:22.658Z,0
2017-11-27T00:01:32.166Z,0
2017-11-27T00:02:41.939Z,0
2017-11-27T00:03:51.967Z,0
2017-11-27T00:05:01.984Z,0
2017-11-27T00:06:11.542Z,0
2017-11-27T00:07:21.543Z,0
2017-11-27T00:08:31.358Z,0
2017-11-27T00:09:41.111Z,0
2017-11-27T00:10:50.617Z,0
2017-11-27T00:12:00.476Z,0
2017-11-27T00:13:10.211Z,0
2017-11-27T00:14:19.986Z,0
2017-11-27T00:15:29.735Z,0
2017-11-27T00:16:39.499Z,0
2017-11-27T00:17:49.532Z,0
2017-11-27T00:18:59.281Z,0
2017-11-27T00:20:09.326Z,0
2017-11-27T00:21:19.333Z,0
2017-11-27T00:22:28.811Z,0
2017-11-27T00:23:38.849Z,0
2017-11-27T00:24:48.317Z,0
2017-11-27T00:25:57.782Z,0
2017-11-27T00:27:07.632Z,0
2017-11-27T00:28:17.102Z,0
2017-11-27T00:29:26.852Z,0
2017-11-27T00:30:36.674Z,0
2017-11-27T00:31:46.410Z,0
2017-11-27T00:32:56.204Z,0
2017-11-27T00:34:06.209Z,0
2017-11-27T00:35:15.776Z,0
2017-11-27T00:36:25.571Z,0
2017-11-27T00:37:35.330Z,0
2017-11-27T00:38:49.292Z,0
2017-11-27T00:39:59.034Z,0
2017-11-27T00:41:08.785Z,0
2017-11-27T00:42:18.583Z,0
2017-11-27T00:43:28.608Z,0
2017-11-27T00:44:38.360Z,0
2017-11-27T00:45:48.096Z,0
2017-11-27T00:46:58.104Z,0
2017-11-27T00:48:07.871Z,0
2017-11-27T00:49:17.349Z,0
2017-11-27T00:50:27.084Z,0
2017-11-27T00:51:37.091Z,0
2017-11-27T00:52:46.825Z,0
2017-11-27T00:53:56.566Z,0
2017-11-27T00:55:06.575Z,0
2017-11-27T00:56:16.637Z,0
2017-11-27T00:57:26.417Z,0
2017-11-27T00:58:36.180Z,0
2017-11-27T00:59:45.381Z,0
2017-11-27T01:00:55.120Z,0
2017-11-27T01:02:04.864Z,0
2017-11-27T01:03:14.625Z,0
2017-11-27T01:04:24.633Z,0
2017-11-27T01:05:34.643Z,0
2017-11-27T01:06:44.666Z,0
2017-11-27T01:07:54.128Z,0
2017-11-27T01:09:04.145Z,0
2017-11-27T01:10:13.884Z,0
2017-11-27T01:11:23.917Z,0
2017-11-27T01:12:33.695Z,0
2017-11-27T01:13:43.221Z,0
2017-11-27T01:14:52.979Z,0
2017-11-27T01:16:03.009Z,0
2017-11-27T01:17:12.739Z,0
2017-11-27T01:18:22.760Z,0
2017-11-27T01:19:32.504Z,0
2017-11-27T01:20:42.242Z,0
2017-11-27T01:21:52.260Z,0
2017-11-27T01:23:02.265Z,0
2017-11-27T01:24:12.002Z,0
2017-11-27T01:25:22.032Z,0
2017-11-27T01:26:31.797Z,0
2017-11-27T01:27:41.294Z,0
2017-11-27T01:28:51.300Z,0
2017-11-27T01:30:01.315Z,0
2017-11-27T01:31:11.058Z,0
2017-11-27T01:32:20.797Z,0
2017-11-27T01:33:30.549Z,0
2017-11-27T01:34:40.295Z,0
2017-11-27T01:35:50.306Z,0
2017-11-27T01:37:00.040Z,0
2017-11-27T01:38:10.046Z,0
2017-11-27T01:39:19.515Z,0
2017-11-27T01:40:29.262Z,0
2017-11-27T01:41:39.517Z,0
2017-11-27T01:42:49.528Z,0
2017-11-27T01:43:59.534Z,0
2017-11-27T01:45:09.558Z,0
2017-11-27T01:46:19.567Z,0
2017-11-27T01:47:29.313Z,0
2017-11-27T01:48:39.321Z,0
2017-11-27T01:49:49.325Z,0
2017-11-27T01:50:59.327Z,0
2017-11-27T01:52:09.072Z,0
2017-11-27T01:53:18.537Z,0
2017-11-27T01:54:28.001Z,0
2017-11-27T01:55:37.479Z,0
2017-11-27T01:56:47.235Z,0
2017-11-27T01:57:57.248Z,0
2017-11-27T01:59:07.511Z,0
2017-11-27T02:00:17.512Z,0
2017-11-27T02:01:27.254Z,0
2017-11-27T02:02:37.259Z,0
2017-11-27T02:03:46.732Z,0
2017-11-27T02:04:56.735Z,0
2017-11-27T02:06:06.745Z,0
2017-11-27T02:07:16.487Z,0
2017-11-27T02:08:25.954Z,0
2017-11-27T02:09:35.697Z,0
2017-11-27T02:10:45.432Z,0
2017-11-27T02:11:55.447Z,0
2017-11-27T02:13:05.248Z,0
2017-11-27T02:14:14.996Z,0
2017-11-27T02:15:25.030Z,0
2017-11-27T02:16:34.775Z,0
2017-11-27T02:17:44.529Z,0
2017-11-27T02:18:54.556Z,0
2017-11-27T02:20:04.304Z,0
2017-11-27T02:21:14.327Z,0
2017-11-27T02:22:24.362Z,0
2017-11-27T02:23:34.143Z,0
2017-11-27T02:24:44.192Z,0
2017-11-27T02:25:54.346Z,0
2017-11-27T02:27:04.373Z,0
2017-11-27T02:28:14.409Z,0
2017-11-27T02:29:23.911Z,0
2017-11-27T02:30:33.947Z,0
2017-11-27T02:31:43.712Z,0
2017-11-27T02:32:53.748Z,0
2017-11-27T02:34:03.797Z,0
2017-11-27T02:35:13.842Z,0
2017-11-27T02:36:23.873Z,0
2017-11-27T02:37:33.373Z,0
2017-11-27T02:38:43.119Z,0
2017-11-27T02:39:52.868Z,0
2017-11-27T02:41:02.623Z,0
2017-11-27T02:42:12.397Z,0
2017-11-27T02:43:21.892Z,0
2017-11-27T02:44:31.135Z,0
2017-11-27T02:45:40.893Z,0
2017-11-27T02:46:50.662Z,0
2017-11-27T02:48:00.433Z,0
2017-11-27T02:49:10.201Z,0
2017-11-27T02:50:19.684Z,0
2017-11-27T02:51:29.476Z,0
2017-11-27T02:52:38.955Z,0
2017-11-27T02:53:49.003Z,0
2017-11-27T02:54:59.037Z,0
2017-11-27T02:56:08.790Z,0
2017-11-27T02:57:18.827Z,0
2017-11-27T02:58:28.858Z,0
2017-11-27T02:59:38.601Z,0
2017-11-27T03:00:48.351Z,0
2017-11-27T03:01:57.832Z,0
2017-11-27T03:03:07.592Z,0
2017-11-27T03:04:17.612Z,0
2017-11-27T03:05:27.378Z,0
2017-11-27T03:06:36.312Z,0
2017-11-27T03:07:45.781Z,0
2017-11-27T03:08:56.070Z,0
2017-11-27T03:10:06.104Z,0
2017-11-27T03:11:15.921Z,0
2017-11-27T03:12:25.940Z,0
2017-11-27T03:13:35.966Z,0
2017-11-27T03:14:45.723Z,0
2017-11-27T03:15:55.750Z,0
2017-11-27T03:17:05.512Z,0
2017-11-27T03:18:15.591Z,0
2017-11-27T03:19:25.623Z,0
2017-11-27T03:20:35.641Z,0
2017-11-27T03:21:45.388Z,0
2017-11-27T03:22:55.143Z,0
2017-11-27T03:24:05.164Z,0
2017-11-27T03:25:15.168Z,0
2017-11-27T03:26:24.648Z,0
2017-11-27T03:27:33.856Z,0
2017-11-27T03:28:43.352Z,0
2017-11-27T03:29:53.376Z,0
2017-11-27T03:31:03.426Z,0
2017-11-27T03:32:13.184Z,0
2017-11-27T03:33:22.680Z,0
2017-11-27T03:34:32.736Z,0
2017-11-27T03:35:42.481Z,0
2017-11-27T03:36:52.250Z,0
2017-11-27T03:38:01.999Z,0
2017-11-27T03:39:11.758Z,0
2017-11-27T03:40:21.246Z,0
2017-11-27T03:41:30.742Z,0
2017-11-27T03:42:40.229Z,0
2017-11-27T03:43:50.248Z,0
2017-11-27T03:44:59.455Z,0
2017-11-27T03:46:09.211Z,0
2017-11-27T03:47:18.970Z,0
2017-11-27T03:48:28.724Z,0
2017-11-27T03:49:38.744Z,0
2017-11-27T03:50:48.217Z,0
2017-11-27T03:51:58.236Z,0
2017-11-27T03:53:07.991Z,0
2017-11-27T03:54:17.478Z,0
2017-11-27T03:55:27.495Z,0
2017-11-27T03:56:37.521Z,0
2017-11-27T03:57:47.051Z,0
2017-11-27T03:58:56.807Z,0
2017-11-27T04:00:06.832Z,0
2017-11-27T04:01:16.037Z,0
2017-11-27T04:02:25.536Z,0
2017-11-27T04:03:35.288Z,0
2017-11-27T04:04:45.041Z,0
2017-11-27T04:05:55.069Z,0
2017-11-27T04:07:07.109Z,0
2017-11-27T04:08:17.146Z,0
2017-11-27T04:09:27.204Z,0
2017-11-27T04:10:36.935Z,0
2017-11-27T04:11:46.960Z,0
2017-11-27T04:12:56.439Z,0
2017-11-27T04:14:06.187Z,0
2017-11-27T04:15:16.219Z,0
2017-11-27T04:16:26.258Z,0
2017-11-27T04:17:36.285Z,0
2017-11-27T04:18:46.043Z,0
2017-11-27T04:19:55.796Z,0
2017-11-27T04:21:05.275Z,0
2017-11-27T04:22:15.303Z,0
2017-11-27T04:23:25.322Z,0
2017-11-27T04:24:35.072Z,0
2017-11-27T04:25:44.830Z,0
2017-11-27T04:26:54.590Z,0
2017-11-27T04:28:04.075Z,0
2017-11-27T04:29:13.866Z,0
2017-11-27T04:30:23.631Z,0
2017-11-27T04:31:33.674Z,0
2017-11-27T04:32:43.441Z,0
2017-11-27T04:33:53.186Z,0
2017-11-27T04:35:03.214Z,0
2017-11-27T04:36:12.957Z,0
2017-11-27T04:37:22.726Z,0
2017-11-27T04:38:32.775Z,0
2017-11-27T04:39:42.249Z,0
2017-11-27T04:40:52.300Z,0
2017-11-27T04:42:02.101Z,0
2017-11-27T04:43:11.879Z,0
2017-11-27T04:44:21.623Z,0
2017-11-27T04:45:31.644Z,0
2017-11-27T04:46:41.656Z,0
2017-11-27T04:47:51.419Z,0
2017-11-27T04:49:01.198Z,0
2017-11-27T04:50:10.142Z,0
2017-11-27T04:51:20.373Z,0
2017-11-27T04:52:30.131Z,0
2017-11-27T04:53:40.176Z,0
2017-11-27T04:54:50.187Z,0
2017-11-27T04:55:59.946Z,0
2017-11-27T04:57:10.063Z,0
2017-11-27T04:58:19.821Z,0
2017-11-27T04:59:29.589Z,0
2017-11-27T05:00:39.340Z,0
2017-11-27T05:01:48.838Z,0
2017-11-27T05:02:58.594Z,0
2017-11-27T05:04:08.353Z,0
2017-11-27T05:05:18.136Z,0
2017-11-27T05:06:28.198Z,0
2017-11-27T05:07:37.961Z,0
2017-11-27T05:08:47.699Z,0
2017-11-27T05:09:57.742Z,0
2017-11-27T05:11:07.499Z,0
2017-11-27T05:12:16.760Z,0
2017-11-27T05:13:26.515Z,0
2017-11-27T05:14:36.556Z,0
2017-11-27T05:15:46.588Z,0
2017-11-27T05:16:56.344Z,0
2017-11-27T05:18:06.625Z,0
2017-11-27T05:19:16.650Z,0
2017-11-27T05:20:26.688Z,0
2017-11-27T05:21:36.171Z,0
2017-11-27T05:22:45.919Z,0
2017-11-27T05:23:55.681Z,0
2017-11-27T05:25:05.709Z,0
2017-11-27T05:26:15.496Z,0
2017-11-27T05:27:25.528Z,0
2017-11-27T05:28:35.009Z,0
2017-11-27T05:29:44.761Z,0
2017-11-27T05:30:54.506Z,0
2017-11-27T05:32:04.256Z,0
2017-11-27T05:33:14.014Z,0
2017-11-27T05:34:24.300Z,0
2017-11-27T05:35:34.062Z,0
2017-11-27T05:36:43.545Z,0
2017-11-27T05:37:53.564Z,0
2017-11-27T05:39:03.608Z,0
2017-11-27T05:40:13.641Z,0
2017-11-27T05:41:23.119Z,0
2017-11-27T05:42:32.888Z,0
2017-11-27T05:43:42.968Z,0
2017-11-27T05:44:52.750Z,0
2017-11-27T05:46:02.511Z,0
2017-11-27T05:47:12.529Z,0
2017-11-27T05:48:22.292Z,0
2017-11-27T05:49:32.334Z,0
2017-11-27T05:50:42.129Z,0
2017-11-27T05:51:51.896Z,0
2017-11-27T05:53:01.643Z,0
2017-11-27T05:54:11.664Z,0
2017-11-27T05:55:21.705Z,0
2017-11-27T05:56:31.206Z,0
2017-11-27T05:57:40.526Z,0
2017-11-27T05:58:50.550Z,0
2017-11-27T06:00:00.579Z,0
2017-11-27T06:01:10.620Z,0
2017-11-27T06:02:20.752Z,4
2017-11-27T06:03:30.807Z,4
2017-11-27T06:04:40.560Z,4
2017-11-27T06:05:50.616Z,4
2017-11-27T06:06:59.831Z,4
2017-11-27T06:08:09.046Z,4
2017-11-27T06:09:19.077Z,4
2017-11-27T06:10:29.128Z,4
2017-11-27T06:11:39.161Z,4
2017-11-27T06:12:48.944Z,4
2017-11-27T06:13:58.696Z,4
2017-11-27T06:15:08.741Z,4
2017-11-27T06:16:18.490Z,4
2017-11-27T06:17:27.702Z,4
2017-11-27T06:18:37.984Z,4
2017-11-27T06:19:47.464Z,4
2017-11-27T06:20:57.219Z,4
2017-11-27T06:22:06.982Z,4
2017-11-27T06:23:15.918Z,4
2017-11-27T06:24:25.660Z,4
2017-11-27T06:25:35.693Z,4
2017-11-27T06:26:45.793Z,4
2017-11-27T06:27:55.268Z,4
2017-11-27T06:29:04.872Z,4
2017-11-27T06:30:14.121Z,0
2017-11-27T06:31:24.153Z,0
2017-11-27T06:32:33.928Z,0
2017-11-27T06:33:43.688Z,0
2017-11-27T06:34:53.776Z,0
2017-11-27T06:36:03.003Z,4
2017-11-27T06:37:12.754Z,4
2017-11-27T06:38:22.793Z,4
2017-11-27T06:39:32.584Z,4
2017-11-27T06:40:42.056Z,4
2017-11-27T06:41:52.070Z,4
2017-11-27T06:43:02.101Z,4
2017-11-27T06:44:12.133Z,4
2017-11-27T06:45:21.892Z,4
2017-11-27T06:46:31.947Z,8
2017-11-27T06:47:41.440Z,4
2017-11-27T06:48:51.689Z,4
2017-11-27T06:50:01.737Z,8
2017-11-27T06:51:11.757Z,4
2017-11-27T06:52:21.785Z,4
2017-11-27T06:53:31.531Z,8
2017-11-27T06:54:40.803Z,8
2017-11-27T06:55:50.137Z,8
2017-11-27T06:57:00.189Z,12
2017-11-27T06:58:09.960Z,12
2017-11-27T06:59:19.719Z,16
2017-11-27T07:00:29.768Z,16
2017-11-27T07:01:39.812Z,20
2017-11-27T07:02:49.304Z,20
2017-11-27T07:03:59.123Z,24
2017-11-27T07:05:09.170Z,24
2017-11-27T07:06:19.261Z,24
2017-11-27T07:07:28.767Z,24
2017-11-27T07:08:38.799Z,28
2017-11-27T07:09:48.300Z,28
2017-11-27T07:10:57.511Z,32
2017-11-27T07:12:07.561Z,32
2017-11-27T07:13:17.045Z,36
2017-11-27T07:14:26.812Z,40
2017-11-27T07:15:36.597Z,40
2017-11-27T07:16:46.353Z,44
2017-11-27T07:17:55.560Z,44
2017-11-27T07:19:05.430Z,48
2017-11-27T07:20:15.220Z,52
2017-11-27T07:21:25.263Z,60
2017-11-27T07:22:34.757Z,64
2017-11-27T07:23:44.530Z,72
2017-11-27T07:24:54.382Z,76
2017-11-27T07:26:04.155Z,80
2017-11-27T07:27:13.374Z,88
2017-11-27T07:28:23.159Z,92
2017-11-27T07:29:33.218Z,100
2017-11-27T07:30:42.731Z,104
2017-11-27T07:31:52.773Z,108
2017-11-27T07:33:02.538Z,108
2017-11-27T07:34:12.605Z,100
2017-11-27T07:35:22.630Z,112
2017-11-27T07:36:32.126Z,104
2017-11-27T07:37:41.968Z,108
2017-11-27T07:38:52.008Z,116
2017-11-27T07:40:02.043Z,136
2017-11-27T07:41:12.072Z,136
2017-11-27T07:42:22.166Z,148
2017-11-27T07:43:31.921Z,156
2017-11-27T07:44:42.002Z,152
2017-11-27T07:45:52.087Z,164
2017-11-27T07:47:01.599Z,172
2017-11-27T07:48:11.354Z,184
2017-11-27T07:49:21.378Z,192
2017-11-27T07:50:30.882Z,232
2017-11-27T07:51:40.667Z,224
2017-11-27T07:52:50.451Z,260
2017-11-27T07:54:00.542Z,252
2017-11-27T07:55:10.042Z,216
2017-11-27T07:56:19.858Z,244
2017-11-27T07:57:29.347Z,276
2017-11-27T07:58:39.429Z,316
2017-11-27T07:59:49.183Z,344
2017-11-27T08:00:59.222Z,352
2017-11-27T08:02:08.730Z,328
2017-11-27T08:03:18.873Z,284
2017-11-27T08:04:29.058Z,304
2017-11-27T08:05:39.078Z,292
2017-11-27T08:06:48.859Z,296
2017-11-27T08:07:58.697Z,276
2017-11-27T08:09:08.469Z,316
2017-11-27T08:10:18.074Z,312
2017-11-27T08:11:27.857Z,248
2017-11-27T08:12:37.653Z,240
2017-11-27T08:13:47.401Z,256
2017-11-27T08:14:57.422Z,244
2017-11-27T08:16:07.460Z,280
2017-11-27T08:17:17.228Z,288
2017-11-27T08:18:26.734Z,304
2017-11-27T08:19:36.762Z,336
2017-11-27T08:20:46.794Z,344
2017-11-27T08:21:56.835Z,352
2017-11-27T08:23:06.907Z,364
2017-11-27T08:24:16.924Z,400
2017-11-27T08:25:26.977Z,408
2017-11-27T08:26:36.773Z,404
2017-11-27T08:27:46.626Z,380
2017-11-27T08:28:56.456Z,356
2017-11-27T08:30:06.286Z,384
2017-11-27T08:31:15.829Z,340
2017-11-27T08:32:25.710Z,296
2017-11-27T08:33:35.828Z,292
2017-11-27T08:34:45.425Z,288
2017-11-27T08:35:55.256Z,276
2017-11-27T08:37:05.111Z,316
2017-11-27T08:38:14.683Z,324
2017-11-27T08:39:23.973Z,372
2017-11-27T08:40:33.786Z,416
2017-11-27T08:41:43.605Z,440
2017-11-27T08:42:53.126Z,404
2017-11-27T08:44:02.955Z,388
2017-11-27T08:45:12.338Z,356
2017-11-27T08:46:21.913Z,392
2017-11-27T08:47:31.522Z,380
2017-11-27T08:48:41.092Z,420
2017-11-27T08:49:50.617Z,360
2017-11-27T08:51:00.411Z,352
2017-11-27T08:52:09.931Z,368
2017-11-27T08:53:19.993Z,332
2017-11-27T08:54:29.833Z,348
2017-11-27T08:55:39.664Z,388
2017-11-27T08:56:49.749Z,324
2017-11-27T08:57:58.947Z,324
2017-11-27T08:59:08.753Z,324
2017-11-27T09:00:18.289Z,348
2017-11-27T09:01:28.348Z,436
2017-11-27T09:02:37.907Z,412
2017-11-27T09:03:48.046Z,380
2017-11-27T09:04:58.120Z,340
2017-11-27T09:06:07.918Z,352
2017-11-27T09:07:17.735Z,400
2017-11-27T09:08:27.528Z,452
2017-11-27T09:09:37.333Z,424
2017-11-27T09:10:47.451Z,380
2017-11-27T09:11:56.804Z,372
2017-11-27T09:13:06.668Z,368
2017-11-27T09:14:16.485Z,344
2017-11-27T09:15:26.315Z,356
2017-11-27T09:16:35.843Z,400
2017-11-27T09:17:45.632Z,400
2017-11-27T09:18:55.428Z,408
2017-11-27T09:20:04.946Z,504
2017-11-27T09:21:14.744Z,528
2017-11-27T09:22:24.584Z,528
2017-11-27T09:23:34.689Z,460
2017-11-27T09:24:44.237Z,432
2017-11-27T09:25:54.382Z,368
2017-11-27T09:27:04.200Z,364
2017-11-27T09:28:13.749Z,332
2017-11-27T09:29:23.267Z,304
2017-11-27T09:30:32.761Z,432
2017-11-27T09:31:42.592Z,448
2017-11-27T09:32:52.401Z,484
2017-11-27T09:34:01.916Z,492
2017-11-27T09:35:11.170Z,516
2017-11-27T09:36:21.312Z,512
2017-11-27T09:37:30.844Z,472
2017-11-27T09:38:40.977Z,412
2017-11-27T09:39:50.270Z,400
2017-11-27T09:41:00.066Z,460
2017-11-27T09:42:10.109Z,496
2017-11-27T09:43:20.004Z,516
2017-11-27T09:44:29.543Z,520
2017-11-27T09:45:39.392Z,512
2017-11-27T09:46:49.178Z,508
2017-11-27T09:47:58.960Z,512
2017-11-27T09:49:08.593Z,488
2017-11-27T09:50:18.449Z,476
2017-11-27T09:51:28.094Z,476
2017-11-27T09:52:37.346Z,352
2017-11-27T09:53:46.860Z,364
2017-11-27T09:54:56.375Z,424
2017-11-27T09:56:05.875Z,484
2017-11-27T09:57:15.927Z,472
2017-11-27T09:58:25.792Z,456
2017-11-27T09:59:35.560Z,540
2017-11-27T10:00:45.335Z,512
2017-11-27T10:01:55.364Z,500
2017-11-27T10:03:05.080Z,452
2017-11-27T10:04:14.844Z,376
2017-11-27T10:05:24.594Z,412
2017-11-27T10:06:34.073Z,420
2017-11-27T10:07:43.282Z,384
2017-11-27T10:08:52.784Z,448
2017-11-27T10:10:02.029Z,432
2017-11-27T10:11:12.064Z,472
2017-11-27T10:12:21.575Z,412
2017-11-27T10:13:31.598Z,436
2017-11-27T10:14:41.384Z,464
2017-11-27T10:15:51.151Z,440
2017-11-27T10:17:00.944Z,388
2017-11-27T10:18:10.693Z,324
2017-11-27T10:19:20.747Z,312
2017-11-27T10:20:30.516Z,316
2017-11-27T10:21:40.315Z,388
2017-11-27T10:22:50.341Z,368
2017-11-27T10:24:00.105Z,396
2017-11-27T10:25:10.133Z,424
2017-11-27T10:26:20.172Z,460
2017-11-27T10:27:30.213Z,428
2017-11-27T10:28:39.992Z,360
2017-11-27T10:29:49.760Z,412
2017-11-27T10:30:59.515Z,384
2017-11-27T10:32:09.269Z,368
2017-11-27T10:33:19.057Z,392
2017-11-27T10:34:28.581Z,444
2017-11-27T10:35:38.135Z,376
2017-11-27T10:36:47.809Z,364
2017-11-27T10:37:56.834Z,480
2017-11-27T10:39:06.387Z,668
2017-11-27T10:40:16.199Z,556
2017-11-27T10:41:25.175Z,600
2017-11-27T10:42:34.729Z,552
2017-11-27T10:43:44.577Z,508
2017-11-27T10:44:54.201Z,468
2017-11-27T10:46:04.053Z,512
2017-11-27T10:47:13.318Z,496
2017-11-27T10:48:23.120Z,516
2017-11-27T10:49:32.985Z,512
2017-11-27T10:50:42.758Z,624
2017-11-27T10:51:52.555Z,708
2017-11-27T10:53:02.090Z,704
2017-11-27T10:54:11.643Z,804
2017-11-27T10:55:21.715Z,752
2017-11-27T10:56:31.504Z,780
2017-11-27T10:57:41.343Z,748
2017-11-27T10:58:50.881Z,688
2017-11-27T11:00:00.431Z,752
2017-11-27T11:01:09.146Z,764
2017-11-27T11:02:19.094Z,736
2017-11-27T11:03:28.464Z,696
2017-11-27T11:04:38.338Z,784
2017-11-27T11:05:48.366Z,712
2017-11-27T11:06:58.443Z,664
2017-11-27T11:08:08.459Z,672
2017-11-27T11:09:18.246Z,616
2017-11-27T11:10:28.002Z,716
2017-11-27T11:11:37.779Z,656
2017-11-27T11:12:47.718Z,660
2017-11-27T11:13:57.259Z,528
2017-11-27T11:15:07.032Z,668
2017-11-27T11:16:16.793Z,636
2017-11-27T11:17:26.560Z,612
2017-11-27T11:18:36.318Z,708
2017-11-27T11:19:46.283Z,712
2017-11-27T11:20:56.074Z,616
2017-11-27T11:22:06.194Z,760
2017-11-27T11:23:15.757Z,680
2017-11-27T11:24:25.546Z,728
2017-11-27T11:25:34.829Z,656
2017-11-27T11:26:44.374Z,524
2017-11-27T11:27:54.178Z,596
2017-11-27T11:29:03.726Z,568
2017-11-27T11:30:12.964Z,420
2017-11-27T11:31:22.812Z,404
2017-11-27T11:32:32.636Z,488
2017-11-27T11:33:42.669Z,528
2017-11-27T11:34:52.504Z,620
2017-11-27T11:36:02.026Z,544
2017-11-27T11:37:11.580Z,436
2017-11-27T11:38:21.633Z,360
2017-11-27T11:39:30.936Z,356
2017-11-27T11:40:40.719Z,400
2017-11-27T11:41:50.535Z,408
2017-11-27T11:43:00.385Z,360
2017-11-27T11:44:10.175Z,356
2017-11-27T11:45:19.994Z,388
2017-11-27T11:46:29.881Z,380
2017-11-27T11:47:39.736Z,444
2017-11-27T11:48:49.044Z,480
2017-11-27T11:49:58.837Z,476
2017-11-27T11:51:08.525Z,508
2017-11-27T11:52:50.136Z,448
2017-11-27T11:53:59.423Z,472
2017-11-27T11:55:09.304Z,488
2017-11-27T11:56:19.251Z,464
2017-11-27T11:57:28.478Z,536
2017-11-27T11:58:38.104Z,472
2017-11-27T11:59:48.249Z,532
2017-11-27T12:00:58.175Z,596
2017-11-27T12:02:08.148Z,596
2017-11-27T12:03:18.027Z,528
2017-11-27T12:04:27.985Z,508
2017-11-27T12:05:37.956Z,492
2017-11-27T12:06:48.525Z,484
2017-11-27T12:07:58.691Z,488
2017-11-27T12:09:09.117Z,500
2017-11-27T12:10:19.351Z,464
2017-11-27T12:11:29.830Z,452
2017-11-27T12:12:40.141Z,500
2017-11-27T12:13:50.180Z,520
2017-11-27T12:15:00.326Z,488
2017-11-27T12:16:11.578Z,496
2017-11-27T12:17:21.780Z,476
2017-11-27T12:18:31.317Z,492
2017-11-27T12:19:41.609Z,548
2017-11-27T12:20:51.197Z,600
2017-11-27T12:22:01.175Z,628
2017-11-27T12:23:11.597Z,612
2017-11-27T12:24:21.480Z,584
2017-11-27T12:25:31.954Z,508
2017-11-27T12:26:41.890Z,540
2017-11-27T12:27:52.094Z,628
2017-11-27T12:29:02.445Z,728
2017-11-27T12:30:12.505Z,836
2017-11-27T12:31:22.657Z,908
2017-11-27T12:32:33.365Z,816
2017-11-27T12:33:44.166Z,896
2017-11-27T12:34:53.354Z,796
2017-11-27T12:36:03.583Z,912
2017-11-27T12:37:14.142Z,832
2017-11-27T12:38:24.577Z,756
2017-11-27T12:39:35.459Z,672
2017-11-27T12:40:45.832Z,644
2017-11-27T12:41:56.477Z,608
2017-11-27T12:43:06.643Z,540
2017-11-27T12:44:16.648Z,568
2017-11-27T12:45:26.776Z,592
2017-11-27T12:46:39.355Z,540
2017-11-27T12:47:49.952Z,528
2017-11-27T12:49:00.418Z,524
2017-11-27T12:50:10.692Z,524
2017-11-27T12:51:20.803Z,520
2017-11-27T12:52:31.028Z,496
2017-11-27T12:53:41.785Z,508
2017-11-27T12:54:51.303Z,448
2017-11-27T12:56:01.348Z,388
2017-11-27T12:57:12.075Z,400
2017-11-27T12:58:22.206Z,372
2017-11-27T12:59:32.853Z,348
2017-11-27T13:00:43.058Z,344
2017-11-27T13:01:53.104Z,380
2017-11-27T13:03:02.902Z,364
2017-11-27T13:04:12.699Z,316
2017-11-27T13:05:23.023Z,304
2017-11-27T13:06:33.171Z,312
2017-11-27T13:07:43.162Z,336
2017-11-27T13:08:54.516Z,372
2017-11-27T13:10:04.619Z,372
2017-11-27T13:11:14.900Z,440
2017-11-27T13:12:25.983Z,452
2017-11-27T13:13:35.907Z,488
2017-11-27T13:14:46.068Z,504
2017-11-27T13:15:56.339Z,556
2017-11-27T13:17:06.224Z,540
2017-11-27T13:18:16.918Z,544
2017-11-27T13:19:28.954Z,488
2017-11-27T13:20:39.631Z,504
2017-11-27T13:21:50.055Z,532
2017-11-27T13:23:00.893Z,440
2017-11-27T13:24:11.485Z,408
2017-11-27T13:25:21.727Z,360
2017-11-27T13:26:32.048Z,384
2017-11-27T13:27:42.406Z,352
2017-11-27T13:28:52.495Z,368
2017-11-27T13:30:05.545Z,436
2017-11-27T13:31:15.791Z,452
2017-11-27T13:32:26.136Z,368
2017-11-27T13:33:36.139Z,364
2017-11-27T13:34:47.093Z,360
2017-11-27T13:35:57.984Z,380
2017-11-27T13:37:08.205Z,340
2017-11-27T13:38:18.067Z,348
2017-11-27T13:39:29.863Z,364
2017-11-27T13:40:39.461Z,316
2017-11-27T13:41:49.635Z,372
2017-11-27T13:43:00.297Z,316
2017-11-27T13:44:11.151Z,312
2017-11-27T13:45:20.986Z,328
2017-11-27T13:46:31.538Z,288
2017-11-27T13:47:41.492Z,264
2017-11-27T13:48:51.303Z,224
2017-11-27T13:50:01.526Z,212
2017-11-27T13:51:12.571Z,272
2017-11-27T13:52:22.516Z,276
2017-11-27T13:53:31.944Z,280
2017-11-27T13:54:42.392Z,236
2017-11-27T13:55:53.093Z,204
2017-11-27T13:57:03.277Z,220
2017-11-27T13:58:13.886Z,280
2017-11-27T13:59:24.296Z,248
2017-11-27T14:00:35.045Z,228
2017-11-27T14:01:45.256Z,244
2017-11-27T14:02:55.252Z,192
2017-11-27T14:04:04.692Z,180
2017-11-27T14:05:15.582Z,168
2017-11-27T14:06:25.973Z,184
2017-11-27T14:07:36.451Z,212
2017-11-27T14:08:48.150Z,208
2017-11-27T14:09:58.222Z,236
2017-11-27T14:11:08.130Z,256
2017-11-27T14:12:17.535Z,252
2017-11-27T14:13:28.060Z,236
2017-11-27T14:14:38.601Z,208
2017-11-27T14:15:48.644Z,176
2017-11-27T14:16:58.441Z,148
2017-11-27T14:18:09.786Z,148
2017-11-27T14:19:19.985Z,148
2017-11-27T14:20:29.967Z,148
2017-11-27T14:21:40.279Z,132
2017-11-27T14:22:51.358Z,136
2017-11-27T14:24:02.160Z,112
2017-11-27T14:25:12.217Z,116
2017-11-27T14:26:22.262Z,116
2017-11-27T14:27:32.292Z,120
2017-11-27T14:28:42.322Z,136
2017-11-27T14:29:53.343Z,100
2017-11-27T14:31:03.789Z,112
2017-11-27T14:32:13.610Z,124
2017-11-27T14:33:23.677Z,104
2017-11-27T14:34:33.666Z,84
2017-11-27T14:35:43.700Z,88
2017-11-27T14:36:54.128Z,92
2017-11-27T14:38:04.028Z,84
2017-11-27T14:39:14.304Z,72
2017-11-27T14:40:24.863Z,60
2017-11-27T14:41:34.393Z,60
2017-11-27T14:42:45.067Z,64
2017-11-27T14:43:55.092Z,64
2017-11-27T14:45:05.842Z,80
2017-11-27T14:46:15.558Z,108
2017-11-27T14:47:26.482Z,112
2017-11-27T14:48:37.000Z,120
2017-11-27T14:49:48.055Z,104
2017-11-27T14:50:57.655Z,92
2017-11-27T14:52:08.162Z,76
2017-11-27T14:53:18.636Z,76
2017-11-27T14:54:29.132Z,64
2017-11-27T14:55:39.481Z,52
2017-11-27T14:56:49.763Z,44
2017-11-27T14:58:00.000Z,40
2017-11-27T14:59:10.677Z,48
2017-11-27T15:00:22.074Z,52
2017-11-27T15:01:32.784Z,44
2017-11-27T15:02:42.632Z,44
2017-11-27T15:03:53.096Z,32
2017-11-27T15:05:04.763Z,36
2017-11-27T15:06:14.868Z,32
2017-11-27T15:07:25.042Z,36
2017-11-27T15:08:34.759Z,32
2017-11-27T15:09:45.184Z,36
2017-11-27T15:10:56.196Z,36
2017-11-27T15:12:06.641Z,40
2017-11-27T15:13:17.093Z,36
2017-11-27T15:14:27.320Z,36
2017-11-27T15:15:37.705Z,32
2017-11-27T15:16:48.261Z,36
2017-11-27T15:18:00.436Z,36
2017-11-27T15:19:10.626Z,32
2017-11-27T15:20:21.179Z,28
2017-11-27T15:21:31.615Z,28
2017-11-27T15:22:42.316Z,24
2017-11-27T15:23:52.595Z,24
2017-11-27T15:25:04.670Z,20
2017-11-27T15:26:14.849Z,24
2017-11-27T15:27:25.192Z,20
2017-11-27T15:28:35.929Z,20
2017-11-27T15:29:45.927Z,16
2017-11-27T15:30:56.450Z,16
2017-11-27T15:32:06.641Z,16
2017-11-27T15:33:17.324Z,12
2017-11-27T15:34:27.175Z,12
2017-11-27T15:35:37.676Z,12
2017-11-27T15:36:47.635Z,12
2017-11-27T15:37:57.495Z,12
2017-11-27T15:39:08.409Z,8
2017-11-27T15:40:18.915Z,8
2017-11-27T15:41:29.154Z,8
2017-11-27T15:42:39.078Z,8
2017-11-27T15:43:49.285Z,8
2017-11-27T15:44:59.470Z,8
2017-11-27T15:46:10.313Z,8
2017-11-27T15:47:20.817Z,4
2017-11-27T15:48:31.460Z,4
2017-11-27T15:49:41.490Z,8
2017-11-27T15:50:52.371Z,8
2017-11-27T15:52:02.481Z,8
2017-11-27T15:53:12.793Z,8
2017-11-27T15:54:22.434Z,4
2017-11-27T15:55:33.418Z,4
2017-11-27T15:56:44.528Z,4
2017-11-27T15:57:54.615Z,4
2017-11-27T15:59:04.169Z,4
2017-11-27T16:00:14.495Z,4
2017-11-27T16:01:25.007Z,4
2017-11-27T16:02:35.221Z,4
2017-11-27T16:03:45.619Z,4
2017-11-27T16:04:56.928Z,4
2017-11-27T16:06:07.886Z,4
2017-11-27T16:07:17.737Z,4
2017-11-27T16:08:27.647Z,4
2017-11-27T16:09:38.254Z,4
2017-11-27T16:10:48.460Z,4
2017-11-27T16:11:58.800Z,4
2017-11-27T16:13:10.128Z,4
2017-11-27T16:14:20.083Z,4
2017-11-27T16:15:30.695Z,4
2017-11-27T16:16:41.621Z,4
2017-11-27T16:17:52.185Z,4
2017-11-27T16:19:02.698Z,4
2017-11-27T16:20:12.933Z,4
2017-11-27T16:21:23.298Z,4
2017-11-27T16:22:34.678Z,4
2017-11-27T16:23:44.205Z,4
2017-11-27T16:24:54.889Z,4
2017-11-27T16:26:05.491Z,4
2017-11-27T16:27:15.427Z,4
2017-11-27T16:28:25.374Z,4
2017-11-27T16:29:35.634Z,4
2017-11-27T16:30:45.420Z,4
2017-11-27T16:31:55.538Z,4
2017-11-27T16:33:05.612Z,4
2017-11-27T16:34:15.119Z,4
2017-11-27T16:35:25.155Z,4
2017-11-27T16:36:35.001Z,4
2017-11-27T16:37:44.500Z,4
2017-11-27T16:38:53.985Z,4
2017-11-27T16:40:04.030Z,4